sensor_id;sensor_type;location;lat;lon;timestamp;pressure;altitude;pressure_sealevel;temperature;humidity
50734;BME280;36701;51.798;19.474;2022-09-09T00:02:08;98463.56;;;15.09;100.00
50734;BME280;36701;51.798;19.474;2022-09-09T00:04:42;98449.59;;;15.35;100.00
50734;BME280;36701;51.798;19.474;2022-09-09T00:10:50;98421.78;;;15.10;100.00
50734;BME280;36701;51.798;19.474;2022-09-09T00:13:51;98423.09;;;15.32;100.00
50734;BME280;36701;51.798;19.474;2022-09-09T00:16:19;98450.19;;;15.84;100.00
50734;BME280;36701;51.798;19.474;2022-09-09T00:25:22;98382.81;;;15.06;100.00
50734;BME280;36701;51.798;19.474;2022-09-09T00:27:50;98459.25;;;15.79;100.00
50734;BME280;36701;51.798;19.474;2022-09-09T00:30:24;98453.28;;;15.44;100.00
50734;BME280;36701;51.798;19.474;2022-09-09T00:32:58;98450.38;;;15.73;100.00
50734;BME280;36701;51.798;19.474;2022-09-09T00:35:38;98416.06;;;15.64;100.00
50734;BME280;36701;51.798;19.474;2022-09-09T00:38:18;98410.94;;;15.62;100.00
50734;BME280;36701;51.798;19.474;2022-09-09T00:43:21;98420.44;;;15.26;100.00
50734;BME280;36701;51.798;19.474;2022-09-09T00:48:35;98447.50;;;15.65;100.00
50734;BME280;36701;51.798;19.474;2022-09-09T00:51:15;98419.53;;;15.50;100.00
50734;BME280;36701;51.798;19.474;2022-09-09T00:54:16;98452.19;;;15.45;100.00
50734;BME280;36701;51.798;19.474;2022-09-09T00:59:47;98449.53;;;15.73;100.00
50734;BME280;36701;51.798;19.474;2022-09-09T01:02:25;98457.47;;;15.88;100.00
50734;BME280;36701;51.798;19.474;2022-09-09T01:04:57;98425.81;;;15.65;100.00
50734;BME280;36701;51.798;19.474;2022-09-09T01:07:27;98422.94;;;15.42;100.00
50734;BME280;36701;51.798;19.474;2022-09-09T01:10:07;98418.97;;;15.01;100.00
50734;BME280;36701;51.798;19.474;2022-09-09T01:12:42;98434.38;;;15.39;100.00
50734;BME280;36701;51.798;19.474;2022-09-09T01:15:14;98449.47;;;15.45;100.00
50734;BME280;36701;51.798;19.474;2022-09-09T01:20:19;98458.47;;;15.59;100.00
50734;BME280;36701;51.798;19.474;2022-09-09T01:23:03;98430.13;;;15.33;100.00
50734;BME280;36701;51.798;19.474;2022-09-09T01:28:15;98473.97;;;15.40;100.00
50734;BME280;36701;51.798;19.474;2022-09-09T01:30:43;98454.97;;;15.40;100.00
50734;BME280;36701;51.798;19.474;2022-09-09T01:33:15;98454.88;;;15.45;100.00
50734;BME280;36701;51.798;19.474;2022-09-09T01:35:55;98471.31;;;15.35;100.00
50734;BME280;36701;51.798;19.474;2022-09-09T01:38:28;98482.03;;;15.07;100.00
50734;BME280;36701;51.798;19.474;2022-09-09T01:40:55;98444.06;;;15.07;100.00
50734;BME280;36701;51.798;19.474;2022-09-09T01:43:23;98479.09;;;15.22;100.00
50734;BME280;36701;51.798;19.474;2022-09-09T01:45:54;98498.19;;;15.69;100.00
50734;BME280;36701;51.798;19.474;2022-09-09T01:48:23;98500.78;;;15.60;100.00
50734;BME280;36701;51.798;19.474;2022-09-09T01:50:51;98497.25;;;15.41;100.00
50734;BME280;36701;51.798;19.474;2022-09-09T01:53:19;98470.22;;;15.17;100.00
50734;BME280;36701;51.798;19.474;2022-09-09T01:58:37;98448.81;;;14.96;100.00
50734;BME280;36701;51.798;19.474;2022-09-09T02:04:19;98504.28;;;15.80;100.00
50734;BME280;36701;51.798;19.474;2022-09-09T02:06:53;98442.25;;;15.54;100.00
50734;BME280;36701;51.798;19.474;2022-09-09T02:09:24;98517.47;;;15.68;100.00
50734;BME280;36701;51.798;19.474;2022-09-09T02:12:02;98507.97;;;15.51;100.00
50734;BME280;36701;51.798;19.474;2022-09-09T02:14:36;98476.75;;;15.87;100.00
50734;BME280;36701;51.798;19.474;2022-09-09T02:17:10;98498.34;;;16.25;100.00
50734;BME280;36701;51.798;19.474;2022-09-09T02:19:42;98497.38;;;15.69;100.00
50734;BME280;36701;51.798;19.474;2022-09-09T02:22:13;98501.81;;;15.26;100.00
50734;BME280;36701;51.798;19.474;2022-09-09T02:24:40;98511.66;;;15.22;100.00
50734;BME280;36701;51.798;19.474;2022-09-09T02:27:08;98490.31;;;15.16;100.00
50734;BME280;36701;51.798;19.474;2022-09-09T02:29:40;98502.69;;;15.41;100.00
50734;BME280;36701;51.798;19.474;2022-09-09T02:32:16;98479.66;;;15.57;100.00
50734;BME280;36701;51.798;19.474;2022-09-09T02:34:47;98472.56;;;15.94;100.00
50734;BME280;36701;51.798;19.474;2022-09-09T02:37:19;98495.84;;;15.82;100.00
50734;BME280;36701;51.798;19.474;2022-09-09T02:39:47;98504.63;;;15.92;100.00
50734;BME280;36701;51.798;19.474;2022-09-09T02:42:14;98473.66;;;15.60;100.00
50734;BME280;36701;51.798;19.474;2022-09-09T02:44:42;98465.16;;;15.48;100.00
50734;BME280;36701;51.798;19.474;2022-09-09T02:55:40;98514.37;;;15.93;100.00
50734;BME280;36701;51.798;19.474;2022-09-09T02:58:11;98510.34;;;15.91;100.00
50734;BME280;36701;51.798;19.474;2022-09-09T03:00:40;98519.09;;;15.88;100.00
50734;BME280;36701;51.798;19.474;2022-09-09T03:03:07;98509.78;;;16.08;100.00
50734;BME280;36701;51.798;19.474;2022-09-09T03:05:36;98478.63;;;16.19;100.00
50734;BME280;36701;51.798;19.474;2022-09-09T03:08:05;98484.37;;;16.31;100.00
50734;BME280;36701;51.798;19.474;2022-09-09T03:10:32;98522.94;;;16.61;100.00
50734;BME280;36701;51.798;19.474;2022-09-09T03:12:59;98515.25;;;16.22;100.00
50734;BME280;36701;51.798;19.474;2022-09-09T03:15:26;98517.59;;;15.95;100.00
50734;BME280;36701;51.798;19.474;2022-09-09T03:17:58;98500.13;;;15.31;100.00
50734;BME280;36701;51.798;19.474;2022-09-09T03:20:26;98517.88;;;15.80;100.00
50734;BME280;36701;51.798;19.474;2022-09-09T03:22:54;98514.84;;;16.28;100.00
50734;BME280;36701;51.798;19.474;2022-09-09T03:25:21;98481.84;;;16.35;100.00
50734;BME280;36701;51.798;19.474;2022-09-09T03:27:51;98512.66;;;16.58;100.00
50734;BME280;36701;51.798;19.474;2022-09-09T03:30:22;98457.78;;;16.01;100.00
50734;BME280;36701;51.798;19.474;2022-09-09T03:32:49;98462.25;;;16.24;100.00
50734;BME280;36701;51.798;19.474;2022-09-09T03:35:15;98449.44;;;16.11;100.00
50734;BME280;36701;51.798;19.474;2022-09-09T03:37:43;98506.22;;;16.54;100.00
50734;BME280;36701;51.798;19.474;2022-09-09T03:40:10;98487.69;;;16.42;100.00
50734;BME280;36701;51.798;19.474;2022-09-09T03:42:37;98523.41;;;16.49;100.00
50734;BME280;36701;51.798;19.474;2022-09-09T03:45:08;98515.81;;;16.05;100.00
50734;BME280;36701;51.798;19.474;2022-09-09T03:47:36;98515.88;;;16.60;100.00
50734;BME280;36701;51.798;19.474;2022-09-09T03:50:05;98505.81;;;16.47;100.00
50734;BME280;36701;51.798;19.474;2022-09-09T03:52:39;98499.19;;;16.53;100.00
50734;BME280;36701;51.798;19.474;2022-09-09T03:55:08;98532.28;;;16.83;100.00
50734;BME280;36701;51.798;19.474;2022-09-09T03:57:35;98529.34;;;16.65;100.00
50734;BME280;36701;51.798;19.474;2022-09-09T04:00:06;98528.28;;;16.94;100.00
50734;BME280;36701;51.798;19.474;2022-09-09T04:02:42;98531.38;;;17.15;100.00
50734;BME280;36701;51.798;19.474;2022-09-09T04:05:10;98528.69;;;16.87;100.00
50734;BME280;36701;51.798;19.474;2022-09-09T04:07:37;98520.41;;;17.06;100.00
50734;BME280;36701;51.798;19.474;2022-09-09T04:10:05;98495.53;;;16.71;100.00
50734;BME280;36701;51.798;19.474;2022-09-09T04:12:32;98535.03;;;16.97;100.00
50734;BME280;36701;51.798;19.474;2022-09-09T04:14:58;98528.69;;;16.87;100.00
50734;BME280;36701;51.798;19.474;2022-09-09T04:17:25;98538.66;;;16.92;100.00
50734;BME280;36701;51.798;19.474;2022-09-09T04:19:58;98546.09;;;16.73;100.00
50734;BME280;36701;51.798;19.474;2022-09-09T04:22:24;98505.81;;;16.75;100.00
50734;BME280;36701;51.798;19.474;2022-09-09T04:24:51;98552.75;;;16.94;100.00
50734;BME280;36701;51.798;19.474;2022-09-09T04:27:18;98547.09;;;17.04;100.00
50734;BME280;36701;51.798;19.474;2022-09-09T04:29:45;98465.88;;;16.61;100.00
50734;BME280;36701;51.798;19.474;2022-09-09T04:32:12;98514.28;;;16.87;100.00
50734;BME280;36701;51.798;19.474;2022-09-09T04:34:39;98491.09;;;16.48;100.00
50734;BME280;36701;51.798;19.474;2022-09-09T04:37:08;98520.72;;;16.91;100.00
50734;BME280;36701;51.798;19.474;2022-09-09T04:39:38;98479.41;;;16.75;100.00
50734;BME280;36701;51.798;19.474;2022-09-09T04:42:05;98518.28;;;17.17;100.00
50734;BME280;36701;51.798;19.474;2022-09-09T04:44:31;98546.44;;;17.35;100.00
50734;BME280;36701;51.798;19.474;2022-09-09T04:47:05;98514.47;;;17.18;100.00
50734;BME280;36701;51.798;19.474;2022-09-09T04:49:32;98544.44;;;17.27;100.00
50734;BME280;36701;51.798;19.474;2022-09-09T04:51:58;98515.44;;;17.22;100.00
50734;BME280;36701;51.798;19.474;2022-09-09T04:54:25;98540.38;;;17.38;100.00
50734;BME280;36701;51.798;19.474;2022-09-09T04:56:51;98517.41;;;17.31;100.00
50734;BME280;36701;51.798;19.474;2022-09-09T04:59:18;98555.72;;;17.34;100.00
50734;BME280;36701;51.798;19.474;2022-09-09T05:01:45;98551.06;;;17.49;100.00
50734;BME280;36701;51.798;19.474;2022-09-09T05:04:12;98557.25;;;17.63;100.00
50734;BME280;36701;51.798;19.474;2022-09-09T05:06:39;98558.53;;;17.43;100.00
50734;BME280;36701;51.798;19.474;2022-09-09T05:09:06;98555.41;;;17.36;100.00
50734;BME280;36701;51.798;19.474;2022-09-09T05:11:33;98556.09;;;17.41;100.00
50734;BME280;36701;51.798;19.474;2022-09-09T05:14:04;98557.34;;;17.58;100.00
50734;BME280;36701;51.798;19.474;2022-09-09T05:16:30;98562.13;;;17.52;100.00
50734;BME280;36701;51.798;19.474;2022-09-09T05:18:57;98506.19;;;17.10;100.00
50734;BME280;36701;51.798;19.474;2022-09-09T05:21:25;98554.09;;;17.47;100.00
50734;BME280;36701;51.798;19.474;2022-09-09T05:23:58;98566.13;;;17.55;100.00
50734;BME280;36701;51.798;19.474;2022-09-09T05:26:26;98565.97;;;17.37;100.00
50734;BME280;36701;51.798;19.474;2022-09-09T05:28:53;98539.56;;;17.01;100.00
50734;BME280;36701;51.798;19.474;2022-09-09T05:31:19;98531.28;;;17.06;100.00
50734;BME280;36701;51.798;19.474;2022-09-09T05:33:47;98560.22;;;17.39;100.00
50734;BME280;36701;51.798;19.474;2022-09-09T05:36:20;98557.72;;;17.42;100.00
50734;BME280;36701;51.798;19.474;2022-09-09T05:38:48;98576.94;;;17.83;100.00
50734;BME280;36701;51.798;19.474;2022-09-09T05:41:15;98568.91;;;17.77;100.00
50734;BME280;36701;51.798;19.474;2022-09-09T05:43:44;98572.91;;;17.80;100.00
50734;BME280;36701;51.798;19.474;2022-09-09T05:46:13;98547.75;;;17.74;100.00
50734;BME280;36701;51.798;19.474;2022-09-09T05:48:42;98576.53;;;17.89;100.00
50734;BME280;36701;51.798;19.474;2022-09-09T05:51:14;98584.97;;;18.02;100.00
50734;BME280;36701;51.798;19.474;2022-09-09T05:53:45;98544.22;;;17.96;100.00
50734;BME280;36701;51.798;19.474;2022-09-09T05:56:22;98580.12;;;18.21;100.00
50734;BME280;36701;51.798;19.474;2022-09-09T05:58:50;98579.69;;;18.28;100.00
50734;BME280;36701;51.798;19.474;2022-09-09T06:01:44;98582.69;;;18.18;100.00
50734;BME280;36701;51.798;19.474;2022-09-09T06:04:14;98592.97;;;18.21;100.00
50734;BME280;36701;51.798;19.474;2022-09-09T06:06:41;98588.44;;;18.16;100.00
50734;BME280;36701;51.798;19.474;2022-09-09T06:09:09;98551.78;;;18.00;100.00
50734;BME280;36701;51.798;19.474;2022-09-09T06:11:38;98553.87;;;18.03;100.00
50734;BME280;36701;51.798;19.474;2022-09-09T06:14:05;98602.69;;;18.44;100.00
50734;BME280;36701;51.798;19.474;2022-09-09T06:16:32;98595.66;;;18.43;100.00
50734;BME280;36701;51.798;19.474;2022-09-09T06:19:01;98601.97;;;18.30;100.00
50734;BME280;36701;51.798;19.474;2022-09-09T06:21:31;98570.84;;;18.00;100.00
50734;BME280;36701;51.798;19.474;2022-09-09T06:24:04;98597.50;;;18.34;100.00
50734;BME280;36701;51.798;19.474;2022-09-09T06:26:33;98566.06;;;18.28;100.00
50734;BME280;36701;51.798;19.474;2022-09-09T06:29:01;98604.78;;;18.47;100.00
50734;BME280;36701;51.798;19.474;2022-09-09T06:31:32;98603.34;;;18.41;100.00
50734;BME280;36701;51.798;19.474;2022-09-09T06:34:01;98606.56;;;18.43;100.00
50734;BME280;36701;51.798;19.474;2022-09-09T06:36:31;98593.16;;;18.56;100.00
50734;BME280;36701;51.798;19.474;2022-09-09T06:38:59;98569.97;;;18.44;100.00
50734;BME280;36701;51.798;19.474;2022-09-09T06:41:27;98532.78;;;18.08;100.00
50734;BME280;36701;51.798;19.474;2022-09-09T06:43:55;98616.69;;;18.51;100.00
50734;BME280;36701;51.798;19.474;2022-09-09T06:46:30;98601.19;;;18.61;100.00
50734;BME280;36701;51.798;19.474;2022-09-09T06:48:59;98614.06;;;18.69;100.00
50734;BME280;36701;51.798;19.474;2022-09-09T06:51:32;98535.63;;;18.03;100.00
50734;BME280;36701;51.798;19.474;2022-09-09T06:54:02;98605.16;;;18.55;100.00
50734;BME280;36701;51.798;19.474;2022-09-09T06:56:34;98588.44;;;18.47;100.00
50734;BME280;36701;51.798;19.474;2022-09-09T06:59:09;98615.06;;;18.73;100.00
50734;BME280;36701;51.798;19.474;2022-09-09T07:01:41;98585.19;;;18.68;100.00
50734;BME280;36701;51.798;19.474;2022-09-09T07:04:08;98620.72;;;18.85;100.00
50734;BME280;36701;51.798;19.474;2022-09-09T07:06:38;98589.91;;;18.54;100.00
50734;BME280;36701;51.798;19.474;2022-09-09T07:09:08;98594.19;;;18.77;100.00
50734;BME280;36701;51.798;19.474;2022-09-09T07:11:43;98618.44;;;18.79;100.00
50734;BME280;36701;51.798;19.474;2022-09-09T07:14:11;98567.31;;;18.84;100.00
50734;BME280;36701;51.798;19.474;2022-09-09T07:16:42;98632.88;;;19.11;100.00
50734;BME280;36701;51.798;19.474;2022-09-09T07:19:09;98597.50;;;18.97;100.00
50734;BME280;36701;51.798;19.474;2022-09-09T07:21:38;98639.28;;;19.06;100.00
50734;BME280;36701;51.798;19.474;2022-09-09T07:24:06;98636.44;;;19.29;100.00
50734;BME280;36701;51.798;19.474;2022-09-09T07:26:38;98634.97;;;19.22;100.00
50734;BME280;36701;51.798;19.474;2022-09-09T07:29:05;98596.44;;;19.15;100.00
50734;BME280;36701;51.798;19.474;2022-09-09T07:31:39;98578.97;;;19.16;100.00
50734;BME280;36701;51.798;19.474;2022-09-09T07:34:07;98633.44;;;19.39;100.00
50734;BME280;36701;51.798;19.474;2022-09-09T07:36:36;98613.66;;;19.24;100.00
50734;BME280;36701;51.798;19.474;2022-09-09T07:39:09;98629.28;;;19.59;100.00
50734;BME280;36701;51.798;19.474;2022-09-09T07:41:42;98628.53;;;19.76;100.00
50734;BME280;36701;51.798;19.474;2022-09-09T07:44:12;98582.84;;;19.33;100.00
50734;BME280;36701;51.798;19.474;2022-09-09T07:46:40;98648.66;;;19.98;100.00
50734;BME280;36701;51.798;19.474;2022-09-09T07:49:08;98651.37;;;19.89;100.00
50734;BME280;36701;51.798;19.474;2022-09-09T07:51:37;98613.09;;;19.71;100.00
50734;BME280;36701;51.798;19.474;2022-09-09T07:54:07;98644.31;;;19.96;100.00
50734;BME280;36701;51.798;19.474;2022-09-09T07:56:36;98643.03;;;20.03;100.00
50734;BME280;36701;51.798;19.474;2022-09-09T07:59:03;98618.59;;;19.80;100.00
50734;BME280;36701;51.798;19.474;2022-09-09T08:01:35;98648.31;;;20.08;100.00
50734;BME280;36701;51.798;19.474;2022-09-09T08:04:13;98655.53;;;20.21;100.00
50734;BME280;36701;51.798;19.474;2022-09-09T08:06:44;98662.16;;;20.20;100.00
50734;BME280;36701;51.798;19.474;2022-09-09T08:09:13;98667.94;;;20.19;100.00
50734;BME280;36701;51.798;19.474;2022-09-09T08:11:41;98672.13;;;20.25;100.00
50734;BME280;36701;51.798;19.474;2022-09-09T08:14:09;98677.25;;;20.35;100.00
50734;BME280;36701;51.798;19.474;2022-09-09T08:16:39;98676.09;;;20.45;100.00
50734;BME280;36701;51.798;19.474;2022-09-09T08:19:07;98676.09;;;20.45;100.00
50734;BME280;36701;51.798;19.474;2022-09-09T08:21:36;98677.06;;;20.49;100.00
50734;BME280;36701;51.798;19.474;2022-09-09T08:24:04;98679.97;;;20.44;100.00
50734;BME280;36701;51.798;19.474;2022-09-09T08:26:34;98645.88;;;20.15;100.00
50734;BME280;36701;51.798;19.474;2022-09-09T08:29:08;98646.50;;;20.47;100.00
50734;BME280;36701;51.798;19.474;2022-09-09T08:31:39;98642.50;;;20.36;100.00
50734;BME280;36701;51.798;19.474;2022-09-09T08:34:07;98685.41;;;20.61;100.00
50734;BME280;36701;51.798;19.474;2022-09-09T08:36:40;98686.88;;;20.59;100.00
50734;BME280;36701;51.798;19.474;2022-09-09T08:39:12;98680.94;;;20.65;100.00
50734;BME280;36701;51.798;19.474;2022-09-09T08:45:02;98687.97;;;20.84;100.00
50734;BME280;36701;51.798;19.474;2022-09-09T08:50:29;98679.91;;;20.79;100.00
50734;BME280;36701;51.798;19.474;2022-09-09T08:53:12;98658.72;;;20.58;100.00
50734;BME280;36701;51.798;19.474;2022-09-09T08:55:48;98655.16;;;20.58;100.00
50734;BME280;36701;51.798;19.474;2022-09-09T08:58:19;98689.00;;;21.09;100.00
50734;BME280;36701;51.798;19.474;2022-09-09T09:11:24;98685.72;;;20.77;100.00
50734;BME280;36701;51.798;19.474;2022-09-09T09:13:56;98676.84;;;20.80;100.00
50734;BME280;36701;51.798;19.474;2022-09-09T09:19:01;98704.44;;;21.14;100.00
50734;BME280;36701;51.798;19.474;2022-09-09T09:21:42;98708.78;;;21.15;100.00
50734;BME280;36701;51.798;19.474;2022-09-09T09:24:19;98710.91;;;21.48;100.00
50734;BME280;36701;51.798;19.474;2022-09-09T09:26:46;98708.00;;;21.53;100.00
50734;BME280;36701;51.798;19.474;2022-09-09T09:29:18;98685.00;;;21.07;100.00
50734;BME280;36701;51.798;19.474;2022-09-09T09:31:54;98701.16;;;21.29;100.00
50734;BME280;36701;51.798;19.474;2022-09-09T09:34:22;98711.25;;;21.46;100.00
50734;BME280;36701;51.798;19.474;2022-09-09T09:36:56;98700.25;;;21.55;100.00
50734;BME280;36701;51.798;19.474;2022-09-09T09:39:30;98710.75;;;21.83;100.00
50734;BME280;36701;51.798;19.474;2022-09-09T09:42:14;98695.97;;;21.96;100.00
50734;BME280;36701;51.798;19.474;2022-09-09T09:44:42;98674.25;;;21.91;100.00
50734;BME280;36701;51.798;19.474;2022-09-09T09:47:18;98669.06;;;21.68;100.00
50734;BME280;36701;51.798;19.474;2022-09-09T09:49:53;98702.75;;;21.99;100.00
50734;BME280;36701;51.798;19.474;2022-09-09T09:52:31;98702.88;;;22.02;100.00
50734;BME280;36701;51.798;19.474;2022-09-09T09:54:59;98707.41;;;21.98;100.00
50734;BME280;36701;51.798;19.474;2022-09-09T09:57:30;98704.97;;;21.75;100.00
50734;BME280;36701;51.798;19.474;2022-09-09T10:02:42;98716.97;;;21.92;100.00
50734;BME280;36701;51.798;19.474;2022-09-09T10:07:44;98724.06;;;21.25;100.00
50734;BME280;36701;51.798;19.474;2022-09-09T10:10:30;98726.13;;;21.36;100.00
50734;BME280;36701;51.798;19.474;2022-09-09T10:24:04;98729.06;;;21.91;100.00
50734;BME280;36701;51.798;19.474;2022-09-09T10:26:45;98733.63;;;22.29;100.00
50734;BME280;36701;51.798;19.474;2022-09-09T10:34:32;98745.03;;;22.61;100.00
50734;BME280;36701;51.798;19.474;2022-09-09T10:37:06;98744.84;;;22.45;100.00
50734;BME280;36701;51.798;19.474;2022-09-09T10:39:39;98751.50;;;22.35;100.00
50734;BME280;36701;51.798;19.474;2022-09-09T10:42:15;98743.66;;;22.25;100.00
50734;BME280;36701;51.798;19.474;2022-09-09T10:55:37;98724.81;;;22.44;100.00
50734;BME280;36701;51.798;19.474;2022-09-09T10:58:05;98747.00;;;22.73;100.00
50734;BME280;36701;51.798;19.474;2022-09-09T11:00:44;98759.88;;;22.60;100.00
50734;BME280;36701;51.798;19.474;2022-09-09T11:03:38;98757.88;;;22.81;100.00
50734;BME280;36701;51.798;19.474;2022-09-09T11:06:15;98753.59;;;23.05;100.00
50734;BME280;36701;51.798;19.474;2022-09-09T11:08:44;98762.97;;;23.50;100.00
50734;BME280;36701;51.798;19.474;2022-09-09T11:11:37;98731.03;;;23.33;100.00
50734;BME280;36701;51.798;19.474;2022-09-09T11:16:57;98772.41;;;24.51;100.00
50734;BME280;36701;51.798;19.474;2022-09-09T11:19:32;98769.00;;;24.29;100.00
50734;BME280;36701;51.798;19.474;2022-09-09T11:22:03;98748.03;;;24.25;100.00
50734;BME280;36701;51.798;19.474;2022-09-09T11:24:40;98751.09;;;24.48;100.00
50734;BME280;36701;51.798;19.474;2022-09-09T11:27:24;98761.38;;;25.08;100.00
50734;BME280;36701;51.798;19.474;2022-09-09T11:30:30;98771.19;;;25.21;100.00
50734;BME280;36701;51.798;19.474;2022-09-09T11:43:33;98744.59;;;26.28;89.73
50734;BME280;36701;51.798;19.474;2022-09-09T11:46:05;98743.94;;;26.15;100.00
50734;BME280;36701;51.798;19.474;2022-09-09T11:48:36;98749.53;;;26.19;92.48
50734;BME280;36701;51.798;19.474;2022-09-09T11:51:11;98749.34;;;26.47;90.86
50734;BME280;36701;51.798;19.474;2022-09-09T11:54:02;98747.81;;;26.69;91.16
50734;BME280;36701;51.798;19.474;2022-09-09T11:56:43;98748.09;;;26.44;82.02
50734;BME280;36701;51.798;19.474;2022-09-09T11:59:31;98734.44;;;26.32;88.55
50734;BME280;36701;51.798;19.474;2022-09-09T12:02:22;98748.44;;;26.23;91.99
50734;BME280;36701;51.798;19.474;2022-09-09T12:05:06;98745.16;;;26.37;84.83
50734;BME280;36701;51.798;19.474;2022-09-09T12:12:45;98735.22;;;25.30;97.87
50734;BME280;36701;51.798;19.474;2022-09-09T12:17:44;98727.19;;;24.64;100.00
50734;BME280;36701;51.798;19.474;2022-09-09T12:20:20;98722.38;;;24.61;100.00
50734;BME280;36701;51.798;19.474;2022-09-09T12:25:44;98720.50;;;24.37;100.00
50734;BME280;36701;51.798;19.474;2022-09-09T12:28:19;98711.06;;;24.22;100.00
50734;BME280;36701;51.798;19.474;2022-09-09T12:31:10;98717.12;;;24.56;100.00
50734;BME280;36701;51.798;19.474;2022-09-09T12:33:45;98724.38;;;24.77;100.00
50734;BME280;36701;51.798;19.474;2022-09-09T12:36:23;98700.63;;;24.44;100.00
50734;BME280;36701;51.798;19.474;2022-09-09T12:38:51;98720.22;;;24.83;100.00
50734;BME280;36701;51.798;19.474;2022-09-09T12:41:26;98720.37;;;24.46;100.00
50734;BME280;36701;51.798;19.474;2022-09-09T12:44:08;98729.59;;;24.66;100.00
50734;BME280;36701;51.798;19.474;2022-09-09T12:46:38;98701.81;;;24.71;100.00
50734;BME280;36701;51.798;19.474;2022-09-09T12:49:26;98709.97;;;24.68;100.00
50734;BME280;36701;51.798;19.474;2022-09-09T12:51:54;98736.56;;;24.92;100.00
50734;BME280;36701;51.798;19.474;2022-09-09T12:54:21;98699.47;;;24.57;100.00
50734;BME280;36701;51.798;19.474;2022-09-09T12:56:48;98688.84;;;24.43;100.00
50734;BME280;36701;51.798;19.474;2022-09-09T12:59:27;98729.94;;;24.52;100.00
50734;BME280;36701;51.798;19.474;2022-09-09T13:02:02;98703.25;;;24.24;100.00
50734;BME280;36701;51.798;19.474;2022-09-09T13:04:28;98719.09;;;24.03;100.00
50734;BME280;36701;51.798;19.474;2022-09-09T13:07:05;98703.88;;;24.46;100.00
50734;BME280;36701;51.798;19.474;2022-09-09T13:09:33;98743.28;;;25.07;100.00
50734;BME280;36701;51.798;19.474;2022-09-09T13:12:11;98688.69;;;24.52;100.00
50734;BME280;36701;51.798;19.474;2022-09-09T13:14:43;98728.22;;;24.88;100.00
50734;BME280;36701;51.798;19.474;2022-09-09T13:17:24;98724.81;;;24.79;100.00
50734;BME280;36701;51.798;19.474;2022-09-09T13:19:52;98674.03;;;24.48;100.00
50734;BME280;36701;51.798;19.474;2022-09-09T13:22:36;98719.87;;;24.56;100.00
50734;BME280;36701;51.798;19.474;2022-09-09T13:27:34;98690.53;;;24.48;100.00
50734;BME280;36701;51.798;19.474;2022-09-09T13:30:28;98692.63;;;24.10;100.00
50734;BME280;36701;51.798;19.474;2022-09-09T13:38:14;98699.34;;;24.25;100.00
50734;BME280;36701;51.798;19.474;2022-09-09T13:40:55;98720.94;;;24.39;100.00
50734;BME280;36701;51.798;19.474;2022-09-09T13:43:24;98720.56;;;24.53;100.00
50734;BME280;36701;51.798;19.474;2022-09-09T13:45:54;98693.00;;;23.97;100.00
50734;BME280;36701;51.798;19.474;2022-09-09T13:48:21;98718.66;;;23.88;100.00
50734;BME280;36701;51.798;19.474;2022-09-09T13:50:55;98716.03;;;23.80;100.00
50734;BME280;36701;51.798;19.474;2022-09-09T13:53:22;98711.78;;;23.94;100.00
50734;BME280;36701;51.798;19.474;2022-09-09T13:55:49;98693.00;;;23.72;100.00
50734;BME280;36701;51.798;19.474;2022-09-09T13:58:17;98707.75;;;24.45;100.00
50734;BME280;36701;51.798;19.474;2022-09-09T14:00:49;98718.81;;;24.20;100.00
50734;BME280;36701;51.798;19.474;2022-09-09T14:03:16;98718.63;;;24.13;100.00
50734;BME280;36701;51.798;19.474;2022-09-09T14:05:44;98681.56;;;23.82;100.00
50734;BME280;36701;51.798;19.474;2022-09-09T14:08:21;98686.81;;;23.75;100.00
50734;BME280;36701;51.798;19.474;2022-09-09T14:10:48;98642.41;;;23.61;100.00
50734;BME280;36701;51.798;19.474;2022-09-09T14:13:15;98686.72;;;23.71;100.00
50734;BME280;36701;51.798;19.474;2022-09-09T14:15:41;98703.34;;;24.28;100.00
50734;BME280;36701;51.798;19.474;2022-09-09T14:18:11;98701.84;;;24.30;100.00
50734;BME280;36701;51.798;19.474;2022-09-09T14:20:38;98709.03;;;24.07;100.00
50734;BME280;36701;51.798;19.474;2022-09-09T14:23:04;98711.31;;;23.80;100.00
50734;BME280;36701;51.798;19.474;2022-09-09T14:25:31;98707.63;;;24.13;100.00
50734;BME280;36701;51.798;19.474;2022-09-09T14:27:57;98717.84;;;24.41;100.00
50734;BME280;36701;51.798;19.474;2022-09-09T14:30:23;98681.41;;;24.32;100.00
50734;BME280;36701;51.798;19.474;2022-09-09T14:32:50;98692.97;;;24.09;100.00
50734;BME280;36701;51.798;19.474;2022-09-09T14:35:21;98723.44;;;24.16;100.00
50734;BME280;36701;51.798;19.474;2022-09-09T14:37:48;98712.63;;;24.23;100.00
50734;BME280;36701;51.798;19.474;2022-09-09T14:40:14;98702.25;;;24.04;100.00
50734;BME280;36701;51.798;19.474;2022-09-09T14:42:41;98705.59;;;23.98;100.00
50734;BME280;36701;51.798;19.474;2022-09-09T14:45:07;98713.63;;;23.78;100.00
50734;BME280;36701;51.798;19.474;2022-09-09T14:47:34;98708.81;;;23.63;100.00
50734;BME280;36701;51.798;19.474;2022-09-09T14:50:00;98687.09;;;23.33;100.00
50734;BME280;36701;51.798;19.474;2022-09-09T14:52:29;98645.53;;;23.22;100.00
50734;BME280;36701;51.798;19.474;2022-09-09T14:54:56;98710.66;;;23.96;100.00
50734;BME280;36701;51.798;19.474;2022-09-09T14:57:23;98705.59;;;23.98;100.00
50734;BME280;36701;51.798;19.474;2022-09-09T14:59:49;98700.31;;;24.05;100.00
50734;BME280;36701;51.798;19.474;2022-09-09T15:02:16;98686.59;;;23.92;100.00
50734;BME280;36701;51.798;19.474;2022-09-09T15:04:43;98681.75;;;24.14;100.00